createdAt,value
2023-04-10T00:02:32.304Z,99.90
2023-04-10T00:07:34.243Z,99.90
2023-04-10T00:12:37.736Z,99.90
2023-04-10T00:17:39.871Z,99.90
2023-04-10T00:22:42.989Z,99.90
2023-04-10T00:27:45.148Z,99.90
2023-04-10T00:32:47.041Z,99.90
2023-04-10T00:37:50.673Z,99.90
2023-04-10T00:42:52.531Z,99.90
2023-04-10T00:47:55.373Z,99.90
2023-04-10T00:52:58.516Z,99.90
2023-04-10T00:58:00.951Z,99.90
2023-04-10T01:03:03.267Z,99.90
2023-04-10T01:08:31.178Z,99.90
2023-04-10T01:13:46.518Z,99.90
2023-04-10T01:18:57.389Z,99.90
2023-04-10T01:24:17.625Z,99.90
2023-04-10T01:29:21.164Z,99.90
2023-04-10T01:34:40.937Z,99.90
2023-04-10T01:39:43.967Z,99.90
2023-04-10T01:44:48.034Z,99.90
2023-04-10T01:49:51.540Z,99.90
2023-04-10T01:54:54.164Z,99.90
2023-04-10T01:59:55.928Z,99.90
2023-04-10T02:04:57.999Z,99.90
2023-04-10T02:10:13.863Z,99.90
2023-04-10T02:15:19.411Z,99.90
2023-04-10T02:20:24.082Z,99.90
2023-04-10T02:25:26.362Z,99.90
2023-04-10T02:30:29.391Z,99.90
2023-04-10T02:35:31.470Z,99.90
2023-04-10T02:40:33.439Z,99.90
2023-04-10T02:45:35.469Z,99.90
2023-04-10T02:50:37.789Z,99.90
2023-04-10T02:55:40.129Z,99.90
2023-04-10T03:00:41.939Z,99.90
2023-04-10T03:05:44.031Z,99.90
2023-04-10T03:10:48.773Z,99.90
2023-04-10T03:15:50.930Z,99.90
2023-04-10T03:20:53.148Z,99.90
2023-04-10T03:25:55.093Z,99.90
2023-04-10T03:30:57.269Z,99.90
2023-04-10T03:35:59.015Z,99.90
2023-04-10T03:41:00.888Z,99.90
2023-04-10T03:46:02.956Z,99.90
2023-04-10T03:51:04.874Z,99.90
2023-04-10T03:56:07.670Z,99.90
2023-04-10T04:01:09.674Z,99.90
2023-04-10T04:06:11.577Z,99.90
2023-04-10T04:11:13.339Z,99.90
2023-04-10T04:16:15.661Z,99.90
2023-04-10T04:21:17.453Z,99.90
2023-04-10T04:26:19.504Z,99.90
2023-04-10T04:31:21.577Z,99.90
2023-04-10T04:36:23.715Z,99.90
2023-04-10T04:41:25.641Z,99.90
2023-04-10T04:46:27.450Z,99.90
2023-04-10T04:51:29.364Z,99.90
2023-04-10T04:56:31.344Z,99.90
2023-04-10T05:01:33.098Z,99.90
2023-04-10T05:06:34.885Z,99.90
2023-04-10T05:11:36.560Z,99.90
2023-04-10T05:16:38.534Z,99.90
2023-04-10T05:21:40.541Z,99.90
2023-04-10T05:26:42.673Z,99.90
2023-04-10T05:31:44.479Z,99.90
2023-04-10T05:36:46.368Z,99.90
2023-04-10T05:41:48.227Z,99.90
2023-04-10T05:46:50.069Z,99.90
2023-04-10T05:51:53.502Z,99.90
2023-04-10T05:56:55.323Z,99.90
2023-04-10T06:01:58.131Z,99.90
2023-04-10T06:07:00.120Z,99.90
2023-04-10T06:12:02.403Z,99.90
2023-04-10T06:17:04.421Z,99.90
2023-04-10T06:22:06.207Z,99.90
2023-04-10T06:27:08.591Z,99.90
2023-04-10T06:32:10.773Z,99.90
2023-04-10T06:37:12.835Z,99.90
2023-04-10T06:42:14.539Z,99.90
2023-04-10T06:47:17.936Z,99.90
2023-04-10T06:52:20.133Z,99.90
2023-04-10T06:57:22.211Z,99.90
2023-04-10T07:02:24.135Z,99.90
2023-04-10T07:07:26.627Z,99.90
2023-04-10T07:12:28.864Z,99.90
2023-04-10T07:17:30.577Z,99.90
2023-04-10T07:22:32.951Z,99.90
2023-04-10T07:27:34.836Z,99.90
2023-04-10T07:32:37.842Z,99.90
2023-04-10T07:37:39.909Z,99.90
2023-04-10T07:42:41.797Z,99.90
2023-04-10T07:47:43.939Z,99.90
2023-04-10T07:52:46.013Z,99.90
2023-04-10T07:57:47.805Z,99.90
2023-04-10T08:02:49.695Z,99.90
2023-04-10T08:07:51.843Z,99.90
2023-04-10T08:12:53.908Z,99.90
2023-04-10T08:17:55.956Z,99.90
2023-04-10T08:23:01.015Z,99.90
2023-04-10T08:28:08.232Z,99.90
2023-04-10T08:33:10.227Z,99.70
2023-04-10T08:38:14.465Z,99.00
2023-04-10T08:43:16.592Z,98.00
2023-04-10T08:48:20.738Z,98.10
2023-04-10T08:53:42.513Z,96.50
2023-04-10T08:58:44.943Z,96.20
2023-04-10T09:03:48.890Z,95.70
2023-04-10T09:08:51.431Z,94.60
2023-04-10T09:13:53.161Z,94.60
2023-04-10T09:18:56.034Z,95.00
2023-04-10T09:24:02.380Z,92.70
2023-04-10T09:29:08.205Z,93.20
2023-04-10T09:34:17.565Z,90.90
2023-04-10T09:39:19.632Z,90.60
2023-04-10T09:44:32.834Z,88.80
2023-04-10T09:49:46.412Z,86.20
2023-04-10T09:54:48.438Z,86.60
2023-04-10T09:59:52.540Z,85.00
2023-04-10T10:04:54.981Z,82.50
2023-04-10T10:09:58.686Z,85.90
2023-04-10T10:15:01.703Z,85.10
2023-04-10T10:20:09.148Z,79.60
2023-04-10T10:25:11.352Z,79.90
2023-04-10T10:30:28.183Z,80.30
2023-04-10T10:35:32.916Z,76.30
2023-04-10T10:41:00.121Z,76.90
2023-04-10T10:46:12.843Z,75.10
2023-04-10T10:51:14.864Z,76.00
2023-04-10T10:56:19.859Z,77.50
2023-04-10T11:01:22.390Z,75.40
2023-04-10T11:06:51.532Z,73.20
2023-04-10T11:12:00.413Z,70.30
2023-04-10T11:17:02.262Z,69.30
2023-04-10T11:22:07.418Z,69.40
2023-04-10T11:27:09.281Z,68.40
2023-04-10T11:32:11.983Z,69.20
2023-04-10T11:37:24.057Z,67.20
2023-04-10T11:42:26.132Z,67.20
2023-04-10T11:47:27.952Z,61.90
2023-04-10T11:52:30.849Z,63.30
2023-04-10T11:57:35.499Z,62.90
2023-04-10T12:02:52.508Z,63.20
2023-04-10T12:07:55.909Z,64.00
2023-04-10T12:12:57.998Z,65.90
2023-04-10T12:17:59.977Z,65.40
2023-04-10T12:23:03.128Z,61.60
2023-04-10T12:28:05.056Z,64.10
2023-04-10T12:33:07.886Z,63.40
2023-04-10T12:38:09.783Z,64.90
2023-04-10T12:43:11.853Z,61.70
2023-04-10T12:48:23.431Z,59.40
2023-04-10T12:53:26.449Z,58.50
2023-04-10T12:58:29.346Z,56.10
2023-04-10T13:03:33.899Z,63.40
2023-04-10T13:08:36.054Z,59.50
2023-04-10T13:13:38.024Z,57.20
2023-04-10T13:18:40.150Z,58.20
2023-04-10T13:23:42.493Z,59.50
2023-04-10T13:28:45.038Z,57.60
2023-04-10T13:33:48.220Z,59.40
2023-04-10T13:38:50.342Z,59.10
2023-04-10T13:43:52.622Z,59.60
2023-04-10T13:48:54.769Z,61.40
2023-04-10T13:53:57.095Z,59.20
2023-04-10T13:58:59.063Z,62.80
2023-04-10T14:04:01.000Z,62.40
2023-04-10T14:09:03.117Z,62.80
2023-04-10T14:14:05.301Z,61.90
2023-04-10T14:19:06.990Z,59.20
2023-04-10T14:24:08.839Z,60.20
2023-04-10T14:29:10.722Z,62.20
2023-04-10T14:34:12.804Z,62.70
2023-04-10T14:39:14.797Z,61.80
2023-04-10T14:44:17.550Z,63.10
2023-04-10T14:49:19.447Z,61.30
2023-04-10T14:54:22.174Z,61.40
2023-04-10T14:59:24.288Z,63.60
2023-04-10T15:04:26.098Z,62.10
2023-04-10T15:09:27.853Z,63.20
2023-04-10T15:14:29.586Z,65.30
2023-04-10T15:19:31.661Z,61.90
2023-04-10T15:24:43.313Z,62.40
2023-04-10T15:29:51.602Z,63.10
2023-04-10T15:34:53.600Z,64.10
2023-04-10T15:39:55.465Z,62.60
2023-04-10T15:44:57.471Z,61.00
2023-04-10T15:49:59.601Z,61.20
2023-04-10T15:55:01.791Z,63.40
2023-04-10T16:00:04.644Z,63.70
2023-04-10T16:05:09.039Z,64.20
2023-04-10T16:10:11.673Z,63.90
2023-04-10T16:15:14.073Z,63.90
2023-04-10T16:20:16.143Z,65.30
2023-04-10T16:25:19.614Z,65.80
2023-04-10T16:30:24.102Z,65.60
2023-04-10T16:35:26.009Z,65.70
2023-04-10T16:40:32.367Z,68.00
2023-04-10T16:45:34.518Z,67.20
2023-04-10T16:50:36.824Z,66.90
2023-04-10T16:55:38.527Z,68.50
2023-04-10T17:00:40.729Z,67.60
2023-04-10T17:05:42.513Z,68.80
2023-04-10T17:10:44.512Z,67.30
2023-04-10T17:15:46.347Z,67.30
2023-04-10T17:20:48.464Z,69.10
2023-04-10T17:25:50.389Z,70.80
2023-04-10T17:30:52.257Z,69.50
2023-04-10T17:35:55.643Z,68.90
2023-04-10T17:40:57.364Z,69.50
2023-04-10T17:45:59.377Z,70.20
2023-04-10T17:51:07.668Z,69.60
2023-04-10T17:56:19.096Z,69.30
2023-04-10T18:01:21.853Z,71.40
2023-04-10T18:06:23.799Z,71.60
2023-04-10T18:11:25.613Z,73.50
2023-04-10T18:16:27.639Z,74.00
2023-04-10T18:21:29.508Z,72.00
2023-04-10T18:26:35.142Z,72.00
2023-04-10T18:31:37.071Z,74.30
2023-04-10T18:36:38.870Z,74.20
2023-04-10T18:41:40.670Z,75.10
2023-04-10T18:46:46.312Z,73.90
2023-04-10T18:51:50.582Z,73.20
2023-04-10T18:56:52.655Z,73.50
2023-04-10T19:01:55.078Z,74.90
2023-04-10T19:06:57.168Z,77.00
2023-04-10T19:11:59.619Z,79.40
2023-04-10T19:17:06.251Z,77.90
2023-04-10T19:22:08.086Z,77.20
2023-04-10T19:27:10.101Z,76.30
2023-04-10T19:32:12.120Z,75.50
2023-04-10T19:37:14.513Z,77.20
2023-04-10T19:42:16.632Z,77.60
2023-04-10T19:47:18.872Z,75.70
2023-04-10T19:52:24.737Z,76.20
2023-04-10T20:02:29.783Z,75.30
2023-04-10T20:07:31.897Z,77.90
2023-04-10T20:17:36.371Z,80.00
2023-04-10T20:22:38.115Z,81.60
2023-04-10T20:27:39.805Z,78.50
2023-04-10T20:32:42.115Z,78.70
2023-04-10T20:37:44.242Z,80.00
2023-04-10T20:42:46.520Z,78.40
2023-04-10T20:47:48.676Z,77.80
2023-04-10T20:52:50.768Z,78.90
2023-04-10T20:57:53.515Z,79.10
2023-04-10T21:02:55.279Z,79.10
2023-04-10T21:07:57.216Z,79.80
2023-04-10T21:12:59.434Z,79.80
2023-04-10T21:18:01.558Z,80.20
2023-04-10T21:23:03.514Z,79.80
2023-04-10T21:28:05.308Z,80.40
2023-04-10T21:33:07.088Z,82.30
2023-04-10T21:38:08.913Z,85.20
2023-04-10T21:43:11.037Z,84.60
2023-04-10T21:48:13.101Z,84.90
2023-04-10T21:53:15.670Z,86.40
2023-04-10T21:58:17.437Z,86.10
2023-04-10T22:03:20.607Z,89.30
2023-04-10T22:08:22.477Z,86.80
2023-04-10T22:13:30.781Z,88.90
2023-04-10T22:18:33.394Z,89.10
2023-04-10T22:23:35.446Z,87.70
2023-04-10T22:28:37.464Z,89.60
2023-04-10T22:33:39.505Z,88.70
2023-04-10T22:38:41.373Z,90.00
2023-04-10T22:43:43.443Z,90.80
2023-04-10T22:48:46.926Z,88.40
2023-04-10T22:53:49.150Z,90.50
2023-04-10T22:58:50.880Z,88.50
2023-04-10T23:03:53.757Z,89.30
2023-04-10T23:08:56.069Z,91.00
2023-04-10T23:13:58.091Z,90.70
2023-04-10T23:18:59.964Z,89.60
2023-04-10T23:24:01.703Z,90.00
2023-04-10T23:29:03.641Z,90.30
2023-04-10T23:34:05.526Z,90.10
2023-04-10T23:39:07.648Z,90.40
2023-04-10T23:44:09.619Z,90.40
2023-04-10T23:49:11.587Z,90.70
2023-04-10T23:54:13.887Z,90.70
2023-04-10T23:59:16.979Z,90.50
